Monticello, Maine
Current Conditions -  °F | °C
As of 10:53 PM on Wednesday 22 Oct 2014 (Local Time) from KHUL Reporting Station
Light Rain Light Rain  
Wind Chill: 37°   Ceiling: 1700
Heat Index: 43°   Visibility: 10mi
Dew Point: 40°   Wind: 12mph
Humidity: 89%   Direction: 30°NNE
Pressure: 30.24"   Gusts: NA
Location:  46.31°N, 67.84°W
Report Text: KHUL 230253Z AUTO 03010KT 10SM -RA BKN017 OVC070 06/04 A3024 RMK AO2 SLP244 P0000 60000 T00610044 58007
Loading
Personal Weather Stations






























Interactive Weather Map
Tropical Storm Tracking
New forecast layout! Learn more

10-Day Weather Forecast

Advertisements
Track Severe Weather on mobile